Corinth, West Virginia
Current Conditions -  °F | °C
As of 7:05 AM on Thursday 29 Jan 2015 (Local Time) from K2G4 Reporting Station
Broken Clouds Broken Clouds  
Wind Chill: 12°   Ceiling: 12000
Heat Index: 23°   Visibility: 10mi
Dew Point:   Wind: 10mph
Humidity: 39%   Direction: 160°SSE
Pressure: 30.04"   Gusts: NA
Location:  39.4346°N, 79.5727°W
Report Text: K2G4 291205Z AUTO 16009KT 10SM SCT090 BKN120 M05/M17 A3004 RMK AO1
Loading
Personal Weather Stations






























Interactive Weather Map New forecast layout! Learn more

10-Day Weather Forecast

Advertisements
Track Severe Weather on mobile